createdAt,value
2023-01-03T00:01:03.165Z,15.5
2023-01-03T00:11:03.038Z,15.4
2023-01-03T00:21:03.180Z,15.3
2023-01-03T00:31:03.106Z,15.3
2023-01-03T00:41:03.266Z,15.2
2023-01-03T00:51:03.040Z,15.1
2023-01-03T01:01:03.267Z,15
2023-01-03T01:11:03.226Z,15
2023-01-03T01:21:03.150Z,15
2023-01-03T01:31:03.276Z,14.9
2023-01-03T01:41:03.144Z,15
2023-01-03T01:51:03.220Z,14.8
2023-01-03T02:01:03.134Z,14.8
2023-01-03T02:11:03.214Z,14.8
2023-01-03T02:21:03.356Z,14.7
2023-01-03T02:31:03.308Z,14.6
2023-01-03T02:41:03.461Z,14.6
2023-01-03T02:51:03.209Z,14.6
2023-01-03T03:01:03.330Z,14.6
2023-01-03T03:11:03.206Z,14.5
2023-01-03T03:21:03.327Z,14.5
2023-01-03T03:31:03.272Z,14.5
2023-01-03T03:41:03.364Z,14.4
2023-01-03T03:51:03.238Z,14.4
2023-01-03T04:01:03.366Z,14.4
2023-01-03T04:11:03.239Z,14.3
2023-01-03T04:21:03.359Z,14.3
2023-01-03T04:31:03.421Z,14.3
2023-01-03T04:41:03.363Z,14.3
2023-01-03T04:51:03.429Z,14.2
2023-01-03T05:01:03.402Z,14.2
2023-01-03T05:11:03.427Z,15.4
2023-01-03T05:21:03.358Z,16.7
2023-01-03T05:31:03.429Z,16.3
2023-01-03T05:41:03.552Z,15.8
2023-01-03T05:51:03.406Z,15.5
2023-01-03T06:01:03.539Z,15.2
2023-01-03T06:11:03.395Z,16.8
2023-01-03T06:21:03.547Z,17
2023-01-03T06:31:03.489Z,16.5
2023-01-03T06:41:03.540Z,16.1
2023-01-03T06:51:03.421Z,15.7
2023-01-03T07:01:03.613Z,15.4
2023-01-03T07:11:03.405Z,17.2
2023-01-03T07:21:03.568Z,17.3
2023-01-03T07:31:03.652Z,16.7
2023-01-03T07:41:03.523Z,16.3
2023-01-03T07:51:03.607Z,16.1
2023-01-03T08:01:03.542Z,17.9
2023-01-03T08:11:03.608Z,17.4
2023-01-03T08:21:03.543Z,16.9
2023-01-03T08:31:03.665Z,16.4
2023-01-03T08:41:03.648Z,16.2
2023-01-03T08:51:03.613Z,15.8
2023-01-03T09:01:03.566Z,15.7
2023-01-03T09:11:03.617Z,16.8
2023-01-03T09:21:03.745Z,17.6
2023-01-03T09:31:03.632Z,17.1
2023-01-03T09:41:03.741Z,16.7
2023-01-03T09:51:19.473Z,16.3
2023-01-03T10:01:03.782Z,16
2023-01-03T10:11:03.609Z,15.9
2023-01-03T10:21:03.783Z,16
2023-01-03T10:31:07.951Z,15.9
2023-01-03T10:41:03.742Z,15.9
2023-01-03T10:51:03.810Z,15.5
2023-01-03T11:01:03.749Z,15.5
2023-01-03T11:11:03.782Z,15.4
2023-01-03T11:21:03.713Z,15.3
2023-01-03T11:31:03.787Z,15.2
2023-01-03T11:41:03.707Z,15.2
2023-01-03T11:51:03.774Z,15.2
2023-01-03T12:01:03.904Z,15.3
2023-01-03T12:11:03.788Z,15.2
2023-01-03T12:21:03.899Z,15.2
2023-01-03T12:31:03.831Z,15.2
2023-01-03T12:41:03.890Z,15.1
2023-01-03T12:51:03.760Z,15.1
2023-01-03T13:01:03.898Z,15.1
2023-01-03T13:11:03.970Z,15.1
2023-01-03T13:21:03.886Z,15.1
2023-01-03T13:31:04.038Z,15
2023-01-03T13:41:19.671Z,15
2023-01-03T13:51:03.949Z,15
2023-01-03T14:01:05.968Z,15
2023-01-03T14:11:03.962Z,15
2023-01-03T14:21:05.423Z,15
2023-01-03T14:31:03.977Z,15
2023-01-03T14:41:04.082Z,15
2023-01-03T14:51:03.945Z,14.9
2023-01-03T15:01:04.119Z,16.2
2023-01-03T15:11:04.027Z,17.2
2023-01-03T15:21:04.048Z,16.7
2023-01-03T15:31:03.942Z,16.3
2023-01-03T15:41:04.066Z,16
2023-01-03T15:51:04.200Z,15.8
2023-01-03T16:01:04.090Z,15.7
2023-01-03T16:11:04.115Z,15.7
2023-01-03T16:21:04.042Z,15.5
2023-01-03T16:31:04.161Z,15.4
2023-01-03T16:41:04.051Z,15.4
2023-01-03T16:51:04.107Z,15.6
2023-01-03T17:01:04.155Z,15.4
2023-01-03T17:11:04.107Z,15.3
2023-01-03T17:21:04.239Z,15.3
2023-01-03T17:31:04.159Z,15.2
2023-01-03T17:41:04.246Z,15.2
2023-01-03T17:51:04.105Z,15.2
2023-01-03T18:01:04.430Z,15.3
2023-01-03T18:11:04.091Z,16.8
2023-01-03T18:21:04.229Z,17.7
2023-01-03T18:31:04.208Z,17
2023-01-03T18:41:05.616Z,16.8
2023-01-03T18:51:04.508Z,16.6
2023-01-03T19:01:04.248Z,16.3
2023-01-03T19:11:04.314Z,16.4
2023-01-03T19:21:04.226Z,18.1
2023-01-03T19:31:04.445Z,17.8
2023-01-03T19:41:04.255Z,17.4
2023-01-03T19:51:04.305Z,17
2023-01-03T20:01:04.216Z,16.6
2023-01-03T20:11:04.319Z,16.4
2023-01-03T20:21:04.231Z,16.2
2023-01-03T20:31:04.366Z,16.2
2023-01-03T20:41:04.421Z,16.1
2023-01-03T20:51:04.290Z,16
2023-01-03T21:01:05.422Z,16
2023-01-03T21:11:04.277Z,16
2023-01-03T21:21:04.399Z,16
2023-01-03T21:31:05.473Z,15.9
2023-01-03T21:41:04.410Z,15.9
2023-01-03T21:51:04.476Z,15.9
2023-01-03T22:01:04.398Z,15.9
2023-01-03T22:11:04.468Z,15.8
2023-01-03T22:21:04.407Z,15.9
2023-01-03T22:31:04.481Z,15.8
2023-01-03T22:41:04.378Z,15.8
2023-01-03T22:51:04.528Z,15.8
2023-01-03T23:01:04.449Z,15.8
2023-01-03T23:11:04.452Z,15.8
2023-01-03T23:21:04.580Z,15.8
2023-01-03T23:31:04.492Z,16
2023-01-03T23:41:04.584Z,15.9
2023-01-03T23:51:04.429Z,15.8
